sensor_id;sensor_type;location;lat;lon;timestamp;P1;durP1;ratioP1;P2;durP2;ratioP2
39996;SDS011;25688;52.338;21.072;2023-12-14T00:01:40;100.03;;;33.05;;
39996;SDS011;25688;52.338;21.072;2023-12-14T00:04:06;87.18;;;32.33;;
39996;SDS011;25688;52.338;21.072;2023-12-14T00:06:35;87.47;;;30.23;;
39996;SDS011;25688;52.338;21.072;2023-12-14T00:09:01;88.22;;;31.25;;
39996;SDS011;25688;52.338;21.072;2023-12-14T00:11:30;96.82;;;32.08;;
39996;SDS011;25688;52.338;21.072;2023-12-14T00:13:56;81.45;;;29.50;;
39996;SDS011;25688;52.338;21.072;2023-12-14T00:16:22;98.65;;;31.98;;
39996;SDS011;25688;52.338;21.072;2023-12-14T00:18:50;85.68;;;30.52;;
39996;SDS011;25688;52.338;21.072;2023-12-14T00:21:16;85.68;;;31.70;;
39996;SDS011;25688;52.338;21.072;2023-12-14T00:23:42;94.13;;;32.83;;
39996;SDS011;25688;52.338;21.072;2023-12-14T00:26:08;85.30;;;29.17;;
39996;SDS011;25688;52.338;21.072;2023-12-14T00:28:33;83.50;;;29.20;;
39996;SDS011;25688;52.338;21.072;2023-12-14T00:31:02;92.20;;;29.58;;
39996;SDS011;25688;52.338;21.072;2023-12-14T00:33:28;85.40;;;30.58;;
39996;SDS011;25688;52.338;21.072;2023-12-14T00:35:54;91.40;;;31.50;;
39996;SDS011;25688;52.338;21.072;2023-12-14T00:38:23;86.03;;;28.98;;
39996;SDS011;25688;52.338;21.072;2023-12-14T00:40:49;86.45;;;30.60;;
39996;SDS011;25688;52.338;21.072;2023-12-14T00:43:14;88.85;;;30.23;;
39996;SDS011;25688;52.338;21.072;2023-12-14T00:45:40;82.88;;;30.27;;
39996;SDS011;25688;52.338;21.072;2023-12-14T00:48:07;88.97;;;29.38;;
39996;SDS011;25688;52.338;21.072;2023-12-14T00:50:32;95.43;;;30.02;;
39996;SDS011;25688;52.338;21.072;2023-12-14T00:52:58;93.50;;;30.23;;
39996;SDS011;25688;52.338;21.072;2023-12-14T00:55:24;103.45;;;30.70;;
39996;SDS011;25688;52.338;21.072;2023-12-14T00:57:50;95.13;;;32.33;;
39996;SDS011;25688;52.338;21.072;2023-12-14T01:00:16;108.25;;;32.22;;
39996;SDS011;25688;52.338;21.072;2023-12-14T01:02:44;104.20;;;29.25;;
39996;SDS011;25688;52.338;21.072;2023-12-14T01:05:10;93.05;;;28.75;;
39996;SDS011;25688;52.338;21.072;2023-12-14T01:07:36;98.25;;;31.20;;
39996;SDS011;25688;52.338;21.072;2023-12-14T01:10:05;96.45;;;29.70;;
39996;SDS011;25688;52.338;21.072;2023-12-14T01:12:33;97.60;;;30.50;;
39996;SDS011;25688;52.338;21.072;2023-12-14T01:15:02;94.68;;;30.35;;
39996;SDS011;25688;52.338;21.072;2023-12-14T01:17:28;99.53;;;30.70;;
39996;SDS011;25688;52.338;21.072;2023-12-14T01:19:54;93.80;;;28.50;;
39996;SDS011;25688;52.338;21.072;2023-12-14T01:22:23;93.30;;;29.67;;
39996;SDS011;25688;52.338;21.072;2023-12-14T01:24:52;91.57;;;29.83;;
39996;SDS011;25688;52.338;21.072;2023-12-14T01:27:18;85.82;;;29.63;;
39996;SDS011;25688;52.338;21.072;2023-12-14T01:29:46;97.43;;;28.85;;
39996;SDS011;25688;52.338;21.072;2023-12-14T01:32:12;93.20;;;29.33;;
39996;SDS011;25688;52.338;21.072;2023-12-14T01:34:58;95.13;;;28.33;;
39996;SDS011;25688;52.338;21.072;2023-12-14T01:37:24;93.20;;;28.45;;
39996;SDS011;25688;52.338;21.072;2023-12-14T01:39:50;80.70;;;27.48;;
39996;SDS011;25688;52.338;21.072;2023-12-14T01:42:15;84.93;;;27.10;;
39996;SDS011;25688;52.338;21.072;2023-12-14T01:44:44;81.40;;;27.95;;
39996;SDS011;25688;52.338;21.072;2023-12-14T01:47:10;87.35;;;27.48;;
39996;SDS011;25688;52.338;21.072;2023-12-14T01:49:36;81.60;;;25.92;;
39996;SDS011;25688;52.338;21.072;2023-12-14T01:52:01;82.25;;;28.63;;
39996;SDS011;25688;52.338;21.072;2023-12-14T01:54:27;91.88;;;27.80;;
39996;SDS011;25688;52.338;21.072;2023-12-14T01:56:53;80.88;;;27.13;;
39996;SDS011;25688;52.338;21.072;2023-12-14T01:59:25;88.43;;;27.83;;
39996;SDS011;25688;52.338;21.072;2023-12-14T02:01:54;93.55;;;27.10;;
39996;SDS011;25688;52.338;21.072;2023-12-14T02:04:22;84.10;;;27.90;;
39996;SDS011;25688;52.338;21.072;2023-12-14T02:06:50;90.45;;;27.85;;
39996;SDS011;25688;52.338;21.072;2023-12-14T02:09:16;99.55;;;28.98;;
39996;SDS011;25688;52.338;21.072;2023-12-14T02:11:42;91.82;;;28.63;;
39996;SDS011;25688;52.338;21.072;2023-12-14T02:14:11;88.25;;;27.73;;
39996;SDS011;25688;52.338;21.072;2023-12-14T02:16:40;86.15;;;26.50;;
39996;SDS011;25688;52.338;21.072;2023-12-14T02:19:06;87.80;;;28.15;;
39996;SDS011;25688;52.338;21.072;2023-12-14T02:21:32;78.40;;;26.10;;
39996;SDS011;25688;52.338;21.072;2023-12-14T02:23:58;91.85;;;30.05;;
39996;SDS011;25688;52.338;21.072;2023-12-14T02:26:24;88.55;;;27.70;;
39996;SDS011;25688;52.338;21.072;2023-12-14T02:28:50;95.63;;;28.75;;
39996;SDS011;25688;52.338;21.072;2023-12-14T02:31:17;96.60;;;32.75;;
39996;SDS011;25688;52.338;21.072;2023-12-14T02:33:44;97.78;;;29.50;;
39996;SDS011;25688;52.338;21.072;2023-12-14T02:36:09;98.32;;;28.33;;
39996;SDS011;25688;52.338;21.072;2023-12-14T02:38:35;106.72;;;30.45;;
39996;SDS011;25688;52.338;21.072;2023-12-14T02:41:01;102.18;;;30.95;;
39996;SDS011;25688;52.338;21.072;2023-12-14T02:43:27;103.30;;;29.30;;
39996;SDS011;25688;52.338;21.072;2023-12-14T02:45:53;114.15;;;31.35;;
39996;SDS011;25688;52.338;21.072;2023-12-14T02:48:20;104.10;;;30.17;;
39996;SDS011;25688;52.338;21.072;2023-12-14T02:50:48;110.07;;;32.85;;
39996;SDS011;25688;52.338;21.072;2023-12-14T02:53:14;109.15;;;31.15;;
39996;SDS011;25688;52.338;21.072;2023-12-14T02:55:40;118.15;;;31.30;;
39996;SDS011;25688;52.338;21.072;2023-12-14T02:58:05;106.68;;;31.70;;
39996;SDS011;25688;52.338;21.072;2023-12-14T03:00:31;116.63;;;34.10;;
39996;SDS011;25688;52.338;21.072;2023-12-14T03:02:57;112.63;;;32.80;;
39996;SDS011;25688;52.338;21.072;2023-12-14T03:05:23;110.18;;;33.08;;
39996;SDS011;25688;52.338;21.072;2023-12-14T03:07:48;102.63;;;30.30;;
39996;SDS011;25688;52.338;21.072;2023-12-14T03:10:14;120.38;;;32.55;;
39996;SDS011;25688;52.338;21.072;2023-12-14T03:12:41;115.85;;;32.38;;
39996;SDS011;25688;52.338;21.072;2023-12-14T03:15:19;128.82;;;35.63;;
39996;SDS011;25688;52.338;21.072;2023-12-14T03:17:45;114.75;;;31.33;;
39996;SDS011;25688;52.338;21.072;2023-12-14T03:20:11;109.05;;;31.95;;
39996;SDS011;25688;52.338;21.072;2023-12-14T03:22:39;114.60;;;33.67;;
39996;SDS011;25688;52.338;21.072;2023-12-14T03:25:05;119.78;;;34.30;;
39996;SDS011;25688;52.338;21.072;2023-12-14T03:27:31;122.45;;;35.10;;
39996;SDS011;25688;52.338;21.072;2023-12-14T03:29:57;101.40;;;30.13;;
39996;SDS011;25688;52.338;21.072;2023-12-14T03:32:23;107.25;;;32.42;;
39996;SDS011;25688;52.338;21.072;2023-12-14T03:34:49;114.35;;;30.88;;
39996;SDS011;25688;52.338;21.072;2023-12-14T03:37:15;109.15;;;32.10;;
39996;SDS011;25688;52.338;21.072;2023-12-14T03:39:41;111.95;;;31.27;;
39996;SDS011;25688;52.338;21.072;2023-12-14T03:42:07;109.22;;;31.48;;
39996;SDS011;25688;52.338;21.072;2023-12-14T03:44:33;105.32;;;32.78;;
39996;SDS011;25688;52.338;21.072;2023-12-14T03:46:59;123.07;;;32.70;;
39996;SDS011;25688;52.338;21.072;2023-12-14T03:49:25;113.07;;;32.45;;
39996;SDS011;25688;52.338;21.072;2023-12-14T03:51:52;125.45;;;34.60;;
39996;SDS011;25688;52.338;21.072;2023-12-14T03:54:17;121.35;;;33.50;;
39996;SDS011;25688;52.338;21.072;2023-12-14T03:56:43;123.30;;;32.38;;
39996;SDS011;25688;52.338;21.072;2023-12-14T03:59:09;122.55;;;35.15;;
39996;SDS011;25688;52.338;21.072;2023-12-14T04:01:35;113.75;;;30.90;;
39996;SDS011;25688;52.338;21.072;2023-12-14T04:04:04;122.05;;;32.17;;
39996;SDS011;25688;52.338;21.072;2023-12-14T04:06:29;111.53;;;31.90;;
39996;SDS011;25688;52.338;21.072;2023-12-14T04:08:55;116.72;;;32.17;;
39996;SDS011;25688;52.338;21.072;2023-12-14T04:11:21;124.13;;;32.08;;
39996;SDS011;25688;52.338;21.072;2023-12-14T04:13:47;117.13;;;32.63;;
39996;SDS011;25688;52.338;21.072;2023-12-14T04:16:15;114.22;;;33.00;;
39996;SDS011;25688;52.338;21.072;2023-12-14T04:18:44;117.75;;;32.15;;
39996;SDS011;25688;52.338;21.072;2023-12-14T04:21:10;125.10;;;32.45;;
39996;SDS011;25688;52.338;21.072;2023-12-14T04:23:35;118.47;;;32.63;;
39996;SDS011;25688;52.338;21.072;2023-12-14T04:26:01;121.70;;;31.05;;
39996;SDS011;25688;52.338;21.072;2023-12-14T04:28:27;121.72;;;33.42;;
39996;SDS011;25688;52.338;21.072;2023-12-14T04:30:53;109.03;;;32.53;;
39996;SDS011;25688;52.338;21.072;2023-12-14T04:33:18;121.15;;;31.40;;
39996;SDS011;25688;52.338;21.072;2023-12-14T04:35:44;120.82;;;32.95;;
39996;SDS011;25688;52.338;21.072;2023-12-14T04:38:10;115.78;;;31.80;;
39996;SDS011;25688;52.338;21.072;2023-12-14T04:40:36;111.20;;;31.20;;
39996;SDS011;25688;52.338;21.072;2023-12-14T04:43:02;108.10;;;30.90;;
39996;SDS011;25688;52.338;21.072;2023-12-14T04:45:28;99.72;;;31.60;;
39996;SDS011;25688;52.338;21.072;2023-12-14T04:47:54;100.75;;;29.60;;
39996;SDS011;25688;52.338;21.072;2023-12-14T04:50:19;93.25;;;28.17;;
39996;SDS011;25688;52.338;21.072;2023-12-14T04:52:46;102.82;;;32.00;;
39996;SDS011;25688;52.338;21.072;2023-12-14T04:55:11;110.85;;;32.60;;
39996;SDS011;25688;52.338;21.072;2023-12-14T04:57:37;116.07;;;31.52;;
39996;SDS011;25688;52.338;21.072;2023-12-14T05:00:04;105.18;;;30.38;;
39996;SDS011;25688;52.338;21.072;2023-12-14T05:02:31;110.35;;;31.67;;
39996;SDS011;25688;52.338;21.072;2023-12-14T05:04:57;111.72;;;34.13;;
39996;SDS011;25688;52.338;21.072;2023-12-14T05:07:23;109.47;;;32.42;;
39996;SDS011;25688;52.338;21.072;2023-12-14T05:09:49;99.63;;;30.50;;
39996;SDS011;25688;52.338;21.072;2023-12-14T05:12:17;106.78;;;31.15;;
39996;SDS011;25688;52.338;21.072;2023-12-14T05:14:43;105.63;;;32.88;;
39996;SDS011;25688;52.338;21.072;2023-12-14T05:17:09;112.35;;;35.00;;
39996;SDS011;25688;52.338;21.072;2023-12-14T05:19:36;109.28;;;33.10;;
39996;SDS011;25688;52.338;21.072;2023-12-14T05:22:02;113.97;;;34.13;;
39996;SDS011;25688;52.338;21.072;2023-12-14T05:24:28;108.00;;;32.38;;
39996;SDS011;25688;52.338;21.072;2023-12-14T05:26:53;108.35;;;32.03;;
39996;SDS011;25688;52.338;21.072;2023-12-14T05:29:19;102.40;;;30.33;;
39996;SDS011;25688;52.338;21.072;2023-12-14T05:31:47;105.35;;;33.05;;
39996;SDS011;25688;52.338;21.072;2023-12-14T05:34:33;101.03;;;32.50;;
39996;SDS011;25688;52.338;21.072;2023-12-14T05:36:58;109.22;;;33.47;;
39996;SDS011;25688;52.338;21.072;2023-12-14T05:39:24;101.15;;;32.40;;
39996;SDS011;25688;52.338;21.072;2023-12-14T05:41:50;94.47;;;29.25;;
39996;SDS011;25688;52.338;21.072;2023-12-14T05:44:16;103.05;;;30.48;;
39996;SDS011;25688;52.338;21.072;2023-12-14T05:46:42;95.47;;;30.92;;
39996;SDS011;25688;52.338;21.072;2023-12-14T05:49:07;104.75;;;33.28;;
39996;SDS011;25688;52.338;21.072;2023-12-14T05:51:33;108.50;;;31.60;;
39996;SDS011;25688;52.338;21.072;2023-12-14T05:53:59;101.07;;;33.03;;
39996;SDS011;25688;52.338;21.072;2023-12-14T05:56:25;105.18;;;33.10;;
39996;SDS011;25688;52.338;21.072;2023-12-14T05:58:51;95.95;;;31.45;;
39996;SDS011;25688;52.338;21.072;2023-12-14T06:01:17;106.25;;;34.85;;
39996;SDS011;25688;52.338;21.072;2023-12-14T06:03:43;98.18;;;31.33;;
39996;SDS011;25688;52.338;21.072;2023-12-14T06:06:10;94.13;;;30.17;;
39996;SDS011;25688;52.338;21.072;2023-12-14T06:08:38;97.18;;;29.20;;
39996;SDS011;25688;52.338;21.072;2023-12-14T06:11:04;97.97;;;30.60;;
39996;SDS011;25688;52.338;21.072;2023-12-14T06:13:31;93.00;;;28.42;;
39996;SDS011;25688;52.338;21.072;2023-12-14T06:15:57;101.70;;;31.50;;
39996;SDS011;25688;52.338;21.072;2023-12-14T06:18:23;96.40;;;30.05;;
39996;SDS011;25688;52.338;21.072;2023-12-14T06:20:49;99.10;;;33.47;;
39996;SDS011;25688;52.338;21.072;2023-12-14T06:23:15;85.43;;;27.00;;
39996;SDS011;25688;52.338;21.072;2023-12-14T06:25:42;84.00;;;28.38;;
39996;SDS011;25688;52.338;21.072;2023-12-14T06:28:08;82.90;;;27.73;;
39996;SDS011;25688;52.338;21.072;2023-12-14T06:30:33;90.63;;;27.70;;
39996;SDS011;25688;52.338;21.072;2023-12-14T06:32:59;85.65;;;27.98;;
39996;SDS011;25688;52.338;21.072;2023-12-14T06:35:25;84.10;;;26.67;;
39996;SDS011;25688;52.338;21.072;2023-12-14T06:37:54;84.80;;;26.10;;
39996;SDS011;25688;52.338;21.072;2023-12-14T06:40:19;84.65;;;29.02;;
39996;SDS011;25688;52.338;21.072;2023-12-14T06:42:45;86.47;;;25.33;;
39996;SDS011;25688;52.338;21.072;2023-12-14T06:45:15;93.15;;;28.58;;
39996;SDS011;25688;52.338;21.072;2023-12-14T06:47:41;96.25;;;29.45;;
39996;SDS011;25688;52.338;21.072;2023-12-14T06:50:08;80.18;;;27.40;;
39996;SDS011;25688;52.338;21.072;2023-12-14T06:52:35;84.30;;;27.50;;
39996;SDS011;25688;52.338;21.072;2023-12-14T06:55:00;86.68;;;27.35;;
39996;SDS011;25688;52.338;21.072;2023-12-14T06:57:26;85.60;;;27.52;;
39996;SDS011;25688;52.338;21.072;2023-12-14T06:59:54;82.03;;;29.30;;
39996;SDS011;25688;52.338;21.072;2023-12-14T07:02:20;92.90;;;29.45;;
39996;SDS011;25688;52.338;21.072;2023-12-14T07:04:49;81.70;;;26.92;;
39996;SDS011;25688;52.338;21.072;2023-12-14T07:07:15;77.75;;;25.98;;
39996;SDS011;25688;52.338;21.072;2023-12-14T07:09:41;84.72;;;27.98;;
39996;SDS011;25688;52.338;21.072;2023-12-14T07:12:08;86.40;;;28.55;;
39996;SDS011;25688;52.338;21.072;2023-12-14T07:14:36;85.05;;;30.23;;
39996;SDS011;25688;52.338;21.072;2023-12-14T07:17:02;81.60;;;27.15;;
39996;SDS011;25688;52.338;21.072;2023-12-14T07:19:28;79.07;;;28.25;;
39996;SDS011;25688;52.338;21.072;2023-12-14T07:21:54;83.55;;;28.55;;
39996;SDS011;25688;52.338;21.072;2023-12-14T07:24:22;88.72;;;29.77;;
39996;SDS011;25688;52.338;21.072;2023-12-14T07:26:48;75.50;;;26.73;;
39996;SDS011;25688;52.338;21.072;2023-12-14T07:29:14;78.32;;;28.92;;
39996;SDS011;25688;52.338;21.072;2023-12-14T07:31:40;93.45;;;30.92;;
39996;SDS011;25688;52.338;21.072;2023-12-14T07:34:06;84.30;;;28.08;;
39996;SDS011;25688;52.338;21.072;2023-12-14T07:36:32;87.28;;;30.98;;
39996;SDS011;25688;52.338;21.072;2023-12-14T07:38:58;83.30;;;29.45;;
39996;SDS011;25688;52.338;21.072;2023-12-14T07:41:26;87.47;;;27.88;;
39996;SDS011;25688;52.338;21.072;2023-12-14T07:43:55;85.50;;;25.90;;
39996;SDS011;25688;52.338;21.072;2023-12-14T07:46:21;77.53;;;29.70;;
39996;SDS011;25688;52.338;21.072;2023-12-14T07:48:47;71.95;;;24.30;;
39996;SDS011;25688;52.338;21.072;2023-12-14T07:51:13;80.20;;;27.13;;
39996;SDS011;25688;52.338;21.072;2023-12-14T07:53:41;67.00;;;23.60;;
39996;SDS011;25688;52.338;21.072;2023-12-14T07:56:08;75.30;;;23.10;;
39996;SDS011;25688;52.338;21.072;2023-12-14T07:58:34;68.32;;;22.15;;
39996;SDS011;25688;52.338;21.072;2023-12-14T08:01:00;77.07;;;24.40;;
39996;SDS011;25688;52.338;21.072;2023-12-14T08:03:25;78.35;;;24.35;;
39996;SDS011;25688;52.338;21.072;2023-12-14T08:05:51;65.45;;;21.17;;
39996;SDS011;25688;52.338;21.072;2023-12-14T08:08:17;68.97;;;21.75;;
39996;SDS011;25688;52.338;21.072;2023-12-14T08:10:43;74.28;;;23.08;;
39996;SDS011;25688;52.338;21.072;2023-12-14T08:13:11;83.60;;;25.17;;
39996;SDS011;25688;52.338;21.072;2023-12-14T08:15:37;72.00;;;23.92;;
39996;SDS011;25688;52.338;21.072;2023-12-14T08:18:05;74.35;;;24.48;;
39996;SDS011;25688;52.338;21.072;2023-12-14T08:20:32;148.35;;;34.05;;
39996;SDS011;25688;52.338;21.072;2023-12-14T08:22:58;76.88;;;25.25;;
39996;SDS011;25688;52.338;21.072;2023-12-14T08:25:27;69.05;;;24.65;;
39996;SDS011;25688;52.338;21.072;2023-12-14T08:27:52;68.35;;;22.98;;
39996;SDS011;25688;52.338;21.072;2023-12-14T08:30:21;62.17;;;20.02;;
39996;SDS011;25688;52.338;21.072;2023-12-14T08:32:50;68.93;;;22.25;;
39996;SDS011;25688;52.338;21.072;2023-12-14T08:35:16;62.58;;;21.40;;
39996;SDS011;25688;52.338;21.072;2023-12-14T08:37:44;64.50;;;21.27;;
39996;SDS011;25688;52.338;21.072;2023-12-14T08:40:10;63.42;;;21.92;;
39996;SDS011;25688;52.338;21.072;2023-12-14T08:42:39;76.55;;;22.15;;
39996;SDS011;25688;52.338;21.072;2023-12-14T08:45:07;73.72;;;21.58;;
39996;SDS011;25688;52.338;21.072;2023-12-14T08:47:48;75.18;;;24.55;;
39996;SDS011;25688;52.338;21.072;2023-12-14T08:50:14;69.45;;;21.20;;
39996;SDS011;25688;52.338;21.072;2023-12-14T08:52:40;67.50;;;21.92;;
39996;SDS011;25688;52.338;21.072;2023-12-14T08:55:07;64.13;;;21.55;;
39996;SDS011;25688;52.338;21.072;2023-12-14T08:57:33;65.43;;;21.88;;
39996;SDS011;25688;52.338;21.072;2023-12-14T09:00:00;58.03;;;21.38;;
39996;SDS011;25688;52.338;21.072;2023-12-14T09:02:26;67.50;;;22.10;;
39996;SDS011;25688;52.338;21.072;2023-12-14T09:04:54;60.42;;;21.45;;
39996;SDS011;25688;52.338;21.072;2023-12-14T09:07:20;64.35;;;20.35;;
39996;SDS011;25688;52.338;21.072;2023-12-14T09:09:49;57.38;;;19.95;;
39996;SDS011;25688;52.338;21.072;2023-12-14T09:12:18;51.60;;;18.70;;
39996;SDS011;25688;52.338;21.072;2023-12-14T09:14:47;58.05;;;20.35;;
39996;SDS011;25688;52.338;21.072;2023-12-14T09:17:12;55.95;;;18.88;;
39996;SDS011;25688;52.338;21.072;2023-12-14T09:19:41;49.83;;;18.40;;
39996;SDS011;25688;52.338;21.072;2023-12-14T09:22:07;62.03;;;20.23;;
39996;SDS011;25688;52.338;21.072;2023-12-14T09:24:33;64.22;;;20.60;;
39996;SDS011;25688;52.338;21.072;2023-12-14T09:27:02;60.75;;;19.50;;
39996;SDS011;25688;52.338;21.072;2023-12-14T09:29:31;57.78;;;19.45;;
39996;SDS011;25688;52.338;21.072;2023-12-14T09:31:56;62.05;;;22.15;;
39996;SDS011;25688;52.338;21.072;2023-12-14T09:34:22;56.33;;;20.35;;
39996;SDS011;25688;52.338;21.072;2023-12-14T09:36:49;54.95;;;20.05;;
39996;SDS011;25688;52.338;21.072;2023-12-14T09:39:18;56.53;;;20.40;;
39996;SDS011;25688;52.338;21.072;2023-12-14T09:41:46;67.47;;;20.65;;
39996;SDS011;25688;52.338;21.072;2023-12-14T09:44:16;63.05;;;21.75;;
39996;SDS011;25688;52.338;21.072;2023-12-14T09:46:45;63.08;;;21.77;;
39996;SDS011;25688;52.338;21.072;2023-12-14T09:49:15;65.97;;;21.55;;
39996;SDS011;25688;52.338;21.072;2023-12-14T09:51:42;59.25;;;18.70;;
39996;SDS011;25688;52.338;21.072;2023-12-14T09:54:12;55.90;;;19.42;;
39996;SDS011;25688;52.338;21.072;2023-12-14T09:56:44;66.85;;;20.80;;
39996;SDS011;25688;52.338;21.072;2023-12-14T09:59:12;55.20;;;20.70;;
39996;SDS011;25688;52.338;21.072;2023-12-14T10:01:38;56.72;;;20.20;;
39996;SDS011;25688;52.338;21.072;2023-12-14T10:04:10;59.83;;;20.67;;
39996;SDS011;25688;52.338;21.072;2023-12-14T10:06:40;54.40;;;18.50;;
39996;SDS011;25688;52.338;21.072;2023-12-14T10:09:07;73.57;;;22.02;;
39996;SDS011;25688;52.338;21.072;2023-12-14T10:11:43;70.85;;;23.27;;
39996;SDS011;25688;52.338;21.072;2023-12-14T10:14:22;59.42;;;19.30;;
39996;SDS011;25688;52.338;21.072;2023-12-14T10:16:52;55.85;;;19.50;;
39996;SDS011;25688;52.338;21.072;2023-12-14T10:19:21;55.17;;;21.00;;
39996;SDS011;25688;52.338;21.072;2023-12-14T10:21:47;65.72;;;20.52;;
39996;SDS011;25688;52.338;21.072;2023-12-14T10:24:13;68.10;;;21.17;;
39996;SDS011;25688;52.338;21.072;2023-12-14T10:26:44;56.40;;;19.83;;
39996;SDS011;25688;52.338;21.072;2023-12-14T10:29:12;50.58;;;17.50;;
39996;SDS011;25688;52.338;21.072;2023-12-14T10:31:38;55.55;;;19.02;;
39996;SDS011;25688;52.338;21.072;2023-12-14T10:34:04;44.10;;;17.92;;
39996;SDS011;25688;52.338;21.072;2023-12-14T10:36:30;47.55;;;17.58;;
39996;SDS011;25688;52.338;21.072;2023-12-14T10:39:00;55.03;;;20.10;;
39996;SDS011;25688;52.338;21.072;2023-12-14T10:41:26;49.47;;;19.45;;
39996;SDS011;25688;52.338;21.072;2023-12-14T10:43:55;50.28;;;18.27;;
39996;SDS011;25688;52.338;21.072;2023-12-14T10:46:23;51.85;;;19.73;;
39996;SDS011;25688;52.338;21.072;2023-12-14T10:48:52;48.05;;;18.38;;
39996;SDS011;25688;52.338;21.072;2023-12-14T10:51:19;54.53;;;19.88;;
39996;SDS011;25688;52.338;21.072;2023-12-14T10:53:46;59.47;;;19.52;;
39996;SDS011;25688;52.338;21.072;2023-12-14T10:56:17;54.90;;;18.08;;
39996;SDS011;25688;52.338;21.072;2023-12-14T10:58:54;52.72;;;17.95;;
39996;SDS011;25688;52.338;21.072;2023-12-14T11:01:22;53.72;;;18.23;;
39996;SDS011;25688;52.338;21.072;2023-12-14T11:03:56;47.47;;;17.00;;
39996;SDS011;25688;52.338;21.072;2023-12-14T11:06:35;49.58;;;18.05;;
39996;SDS011;25688;52.338;21.072;2023-12-14T11:09:07;56.42;;;19.58;;
39996;SDS011;25688;52.338;21.072;2023-12-14T11:11:54;65.50;;;23.00;;
39996;SDS011;25688;52.338;21.072;2023-12-14T11:14:22;61.72;;;20.75;;
39996;SDS011;25688;52.338;21.072;2023-12-14T11:16:50;64.65;;;21.30;;
39996;SDS011;25688;52.338;21.072;2023-12-14T11:24:21;58.47;;;22.60;;
39996;SDS011;25688;52.338;21.072;2023-12-14T11:26:51;58.17;;;19.90;;
39996;SDS011;25688;52.338;21.072;2023-12-14T11:29:17;57.65;;;20.20;;
39996;SDS011;25688;52.338;21.072;2023-12-14T11:31:44;50.38;;;20.13;;
39996;SDS011;25688;52.338;21.072;2023-12-14T11:34:11;61.72;;;19.70;;
39996;SDS011;25688;52.338;21.072;2023-12-14T11:36:37;53.20;;;19.20;;
39996;SDS011;25688;52.338;21.072;2023-12-14T11:39:07;51.75;;;17.88;;
39996;SDS011;25688;52.338;21.072;2023-12-14T11:41:34;46.47;;;17.45;;
39996;SDS011;25688;52.338;21.072;2023-12-14T11:44:01;62.28;;;23.05;;
39996;SDS011;25688;52.338;21.072;2023-12-14T11:46:28;48.13;;;17.92;;
39996;SDS011;25688;52.338;21.072;2023-12-14T11:48:57;55.10;;;19.80;;
39996;SDS011;25688;52.338;21.072;2023-12-14T11:51:24;54.17;;;18.65;;
39996;SDS011;25688;52.338;21.072;2023-12-14T11:53:55;58.90;;;19.45;;
39996;SDS011;25688;52.338;21.072;2023-12-14T11:56:21;55.88;;;17.45;;
39996;SDS011;25688;52.338;21.072;2023-12-14T11:58:49;59.92;;;20.88;;
39996;SDS011;25688;52.338;21.072;2023-12-14T12:01:17;62.50;;;19.48;;
39996;SDS011;25688;52.338;21.072;2023-12-14T12:03:44;55.42;;;19.05;;
39996;SDS011;25688;52.338;21.072;2023-12-14T12:06:20;50.70;;;19.13;;
39996;SDS011;25688;52.338;21.072;2023-12-14T12:08:48;53.55;;;18.98;;
39996;SDS011;25688;52.338;21.072;2023-12-14T12:11:17;54.38;;;18.98;;
39996;SDS011;25688;52.338;21.072;2023-12-14T12:13:49;51.95;;;18.50;;
39996;SDS011;25688;52.338;21.072;2023-12-14T12:16:18;55.35;;;18.60;;
39996;SDS011;25688;52.338;21.072;2023-12-14T12:18:47;48.55;;;17.48;;
39996;SDS011;25688;52.338;21.072;2023-12-14T12:21:13;56.22;;;17.75;;
39996;SDS011;25688;52.338;21.072;2023-12-14T12:23:39;46.78;;;17.85;;
39996;SDS011;25688;52.338;21.072;2023-12-14T12:26:07;57.08;;;18.25;;
39996;SDS011;25688;52.338;21.072;2023-12-14T12:28:33;58.53;;;17.50;;
39996;SDS011;25688;52.338;21.072;2023-12-14T12:30:59;59.42;;;18.20;;
39996;SDS011;25688;52.338;21.072;2023-12-14T12:33:25;50.35;;;15.40;;
39996;SDS011;25688;52.338;21.072;2023-12-14T12:35:54;54.17;;;17.35;;
39996;SDS011;25688;52.338;21.072;2023-12-14T12:38:20;54.53;;;19.90;;
39996;SDS011;25688;52.338;21.072;2023-12-14T12:40:46;50.92;;;17.75;;
39996;SDS011;25688;52.338;21.072;2023-12-14T12:43:12;59.58;;;19.35;;
39996;SDS011;25688;52.338;21.072;2023-12-14T12:45:39;54.83;;;18.50;;
39996;SDS011;25688;52.338;21.072;2023-12-14T12:48:05;54.47;;;19.98;;
39996;SDS011;25688;52.338;21.072;2023-12-14T12:50:32;59.10;;;19.20;;
39996;SDS011;25688;52.338;21.072;2023-12-14T12:52:58;60.17;;;20.85;;
39996;SDS011;25688;52.338;21.072;2023-12-14T12:55:23;68.03;;;22.60;;
39996;SDS011;25688;52.338;21.072;2023-12-14T12:57:49;63.78;;;22.15;;
39996;SDS011;25688;52.338;21.072;2023-12-14T13:00:15;69.40;;;22.27;;
39996;SDS011;25688;52.338;21.072;2023-12-14T13:02:41;69.57;;;21.27;;
39996;SDS011;25688;52.338;21.072;2023-12-14T13:05:15;67.43;;;22.77;;
39996;SDS011;25688;52.338;21.072;2023-12-14T13:08:08;70.65;;;22.85;;
39996;SDS011;25688;52.338;21.072;2023-12-14T13:10:34;63.53;;;22.67;;
39996;SDS011;25688;52.338;21.072;2023-12-14T13:13:04;67.18;;;20.80;;
39996;SDS011;25688;52.338;21.072;2023-12-14T13:15:30;81.35;;;22.77;;
39996;SDS011;25688;52.338;21.072;2023-12-14T13:17:56;80.53;;;24.10;;
39996;SDS011;25688;52.338;21.072;2023-12-14T13:20:23;67.18;;;19.75;;
39996;SDS011;25688;52.338;21.072;2023-12-14T13:22:51;75.85;;;23.88;;
39996;SDS011;25688;52.338;21.072;2023-12-14T13:25:17;76.70;;;24.05;;
39996;SDS011;25688;52.338;21.072;2023-12-14T13:27:44;71.72;;;24.63;;
39996;SDS011;25688;52.338;21.072;2023-12-14T13:30:10;87.70;;;23.42;;
39996;SDS011;25688;52.338;21.072;2023-12-14T13:32:39;69.57;;;21.65;;
39996;SDS011;25688;52.338;21.072;2023-12-14T13:35:04;86.20;;;25.50;;
39996;SDS011;25688;52.338;21.072;2023-12-14T13:37:31;78.72;;;24.25;;
39996;SDS011;25688;52.338;21.072;2023-12-14T13:39:56;90.55;;;27.58;;
39996;SDS011;25688;52.338;21.072;2023-12-14T13:42:22;81.80;;;23.10;;
39996;SDS011;25688;52.338;21.072;2023-12-14T13:44:48;79.13;;;24.40;;
39996;SDS011;25688;52.338;21.072;2023-12-14T13:47:13;83.35;;;23.67;;
39996;SDS011;25688;52.338;21.072;2023-12-14T13:49:39;76.55;;;22.95;;
39996;SDS011;25688;52.338;21.072;2023-12-14T13:52:08;80.07;;;22.23;;
39996;SDS011;25688;52.338;21.072;2023-12-14T13:54:34;89.40;;;28.20;;
39996;SDS011;25688;52.338;21.072;2023-12-14T13:57:01;83.47;;;24.42;;
39996;SDS011;25688;52.338;21.072;2023-12-14T13:59:35;92.40;;;29.08;;
39996;SDS011;25688;52.338;21.072;2023-12-14T14:02:00;84.85;;;23.42;;
39996;SDS011;25688;52.338;21.072;2023-12-14T14:04:27;84.38;;;24.20;;
39996;SDS011;25688;52.338;21.072;2023-12-14T14:06:52;82.55;;;25.27;;
39996;SDS011;25688;52.338;21.072;2023-12-14T14:09:18;82.15;;;23.75;;
39996;SDS011;25688;52.338;21.072;2023-12-14T14:11:44;84.53;;;27.20;;